Terminal Aerodrome Forecast
Issued by NWS Midland/Odessa, TX

Home | Current Version | Previous Version | Text Only | Print | Product List | Glossary On
Versions: 1 2 3 4 5 6 7 8 9 10 11 12 13 14 15 16 17 18 19 20 21 22 23
000
FTUS44 KMAF 282300
TAFMAF
TAF
KMAF 282326Z 0100/0124 12008KT 2SM BR OVC003
     FM010400 13008KT 1SM BR OVC001
      TEMPO 0112/0116 1/2SM FG
     FM011700 13008KT 6SM BR OVC004
     FM012000 12010KT P6SM SCT015=

USA.gov is the U.S. government's official web portal to all federal, state and local government web resources and services.